sensor_id;sensor_type;location;lat;lon;timestamp;P1;durP1;ratioP1;P2;durP2;ratioP2
23206;SDS011;11773;52.570;13.052;2024-03-02T00:02:19;4.90;;;4.40;;
23206;SDS011;11773;52.570;13.052;2024-03-02T00:04:48;5.20;;;4.00;;
23206;SDS011;11773;52.570;13.052;2024-03-02T00:07:18;4.73;;;4.30;;
23206;SDS011;11773;52.570;13.052;2024-03-02T00:09:48;4.70;;;4.00;;
23206;SDS011;11773;52.570;13.052;2024-03-02T00:12:20;4.97;;;4.03;;
23206;SDS011;11773;52.570;13.052;2024-03-02T00:14:50;4.47;;;4.07;;
23206;SDS011;11773;52.570;13.052;2024-03-02T00:17:24;5.00;;;4.10;;
23206;SDS011;11773;52.570;13.052;2024-03-02T00:19:54;4.13;;;3.73;;
23206;SDS011;11773;52.570;13.052;2024-03-02T00:22:24;4.43;;;3.97;;
23206;SDS011;11773;52.570;13.052;2024-03-02T00:24:55;4.33;;;3.93;;
23206;SDS011;11773;52.570;13.052;2024-03-02T00:27:24;4.00;;;3.60;;
23206;SDS011;11773;52.570;13.052;2024-03-02T00:29:54;4.53;;;4.10;;
23206;SDS011;11773;52.570;13.052;2024-03-02T00:32:24;4.63;;;3.97;;
23206;SDS011;11773;52.570;13.052;2024-03-02T00:34:55;4.10;;;3.70;;
23206;SDS011;11773;52.570;13.052;2024-03-02T00:37:25;5.33;;;4.30;;
23206;SDS011;11773;52.570;13.052;2024-03-02T00:39:55;5.63;;;4.40;;
23206;SDS011;11773;52.570;13.052;2024-03-02T00:42:25;4.93;;;4.17;;
23206;SDS011;11773;52.570;13.052;2024-03-02T00:44:54;4.07;;;3.67;;
23206;SDS011;11773;52.570;13.052;2024-03-02T00:47:24;4.50;;;4.10;;
23206;SDS011;11773;52.570;13.052;2024-03-02T00:49:54;4.20;;;3.80;;
23206;SDS011;11773;52.570;13.052;2024-03-02T00:52:24;3.97;;;3.57;;
23206;SDS011;11773;52.570;13.052;2024-03-02T00:54:55;4.23;;;3.47;;
23206;SDS011;11773;52.570;13.052;2024-03-02T00:57:26;4.70;;;4.20;;
23206;SDS011;11773;52.570;13.052;2024-03-02T00:59:59;4.60;;;4.00;;
23206;SDS011;11773;52.570;13.052;2024-03-02T01:02:30;4.43;;;4.03;;
23206;SDS011;11773;52.570;13.052;2024-03-02T01:05:00;4.33;;;3.93;;
23206;SDS011;11773;52.570;13.052;2024-03-02T01:07:31;4.30;;;3.90;;
23206;SDS011;11773;52.570;13.052;2024-03-02T01:10:01;3.90;;;3.60;;
23206;SDS011;11773;52.570;13.052;2024-03-02T01:12:30;4.33;;;3.90;;
23206;SDS011;11773;52.570;13.052;2024-03-02T01:15:00;4.93;;;4.07;;
23206;SDS011;11773;52.570;13.052;2024-03-02T01:17:31;4.50;;;4.10;;
23206;SDS011;11773;52.570;13.052;2024-03-02T01:20:01;4.40;;;4.00;;
23206;SDS011;11773;52.570;13.052;2024-03-02T01:22:31;4.17;;;3.53;;
23206;SDS011;11773;52.570;13.052;2024-03-02T01:25:01;3.77;;;3.47;;
23206;SDS011;11773;52.570;13.052;2024-03-02T01:27:31;4.13;;;3.67;;
23206;SDS011;11773;52.570;13.052;2024-03-02T01:30:01;4.00;;;3.60;;
23206;SDS011;11773;52.570;13.052;2024-03-02T01:32:30;4.50;;;3.97;;
23206;SDS011;11773;52.570;13.052;2024-03-02T01:35:00;6.10;;;4.53;;
23206;SDS011;11773;52.570;13.052;2024-03-02T01:37:30;4.13;;;3.73;;
23206;SDS011;11773;52.570;13.052;2024-03-02T01:39:59;4.27;;;3.83;;
23206;SDS011;11773;52.570;13.052;2024-03-02T01:42:30;4.40;;;4.00;;
23206;SDS011;11773;52.570;13.052;2024-03-02T01:44:59;4.17;;;3.73;;
23206;SDS011;11773;52.570;13.052;2024-03-02T01:47:29;4.10;;;3.70;;
23206;SDS011;11773;52.570;13.052;2024-03-02T01:49:59;3.97;;;3.57;;
23206;SDS011;11773;52.570;13.052;2024-03-02T01:52:29;4.23;;;3.83;;
23206;SDS011;11773;52.570;13.052;2024-03-02T01:54:58;4.20;;;3.60;;
23206;SDS011;11773;52.570;13.052;2024-03-02T01:57:28;4.23;;;3.40;;
23206;SDS011;11773;52.570;13.052;2024-03-02T01:59:58;4.30;;;3.60;;
23206;SDS011;11773;52.570;13.052;2024-03-02T02:02:30;3.97;;;3.60;;
23206;SDS011;11773;52.570;13.052;2024-03-02T02:04:59;4.13;;;3.73;;
23206;SDS011;11773;52.570;13.052;2024-03-02T02:07:29;4.10;;;3.70;;
23206;SDS011;11773;52.570;13.052;2024-03-02T02:09:59;3.70;;;3.40;;
23206;SDS011;11773;52.570;13.052;2024-03-02T02:12:29;3.77;;;3.40;;
23206;SDS011;11773;52.570;13.052;2024-03-02T02:14:59;3.57;;;3.27;;
23206;SDS011;11773;52.570;13.052;2024-03-02T02:17:28;4.17;;;3.77;;
23206;SDS011;11773;52.570;13.052;2024-03-02T02:19:58;4.23;;;3.37;;
23206;SDS011;11773;52.570;13.052;2024-03-02T02:22:27;3.93;;;3.53;;
23206;SDS011;11773;52.570;13.052;2024-03-02T02:24:57;3.70;;;3.40;;
23206;SDS011;11773;52.570;13.052;2024-03-02T02:27:26;3.83;;;3.47;;
23206;SDS011;11773;52.570;13.052;2024-03-02T02:29:57;3.90;;;3.50;;
23206;SDS011;11773;52.570;13.052;2024-03-02T02:32:28;3.63;;;3.33;;
23206;SDS011;11773;52.570;13.052;2024-03-02T02:34:57;4.00;;;3.60;;
23206;SDS011;11773;52.570;13.052;2024-03-02T02:37:27;4.30;;;3.60;;
23206;SDS011;11773;52.570;13.052;2024-03-02T02:39:56;3.53;;;3.23;;
23206;SDS011;11773;52.570;13.052;2024-03-02T02:42:26;3.60;;;3.30;;
23206;SDS011;11773;52.570;13.052;2024-03-02T02:44:56;3.80;;;3.33;;
23206;SDS011;11773;52.570;13.052;2024-03-02T02:47:25;3.70;;;3.40;;
23206;SDS011;11773;52.570;13.052;2024-03-02T02:49:57;4.10;;;3.43;;
23206;SDS011;11773;52.570;13.052;2024-03-02T02:52:30;3.63;;;3.10;;
23206;SDS011;11773;52.570;13.052;2024-03-02T02:55:03;3.50;;;3.20;;
23206;SDS011;11773;52.570;13.052;2024-03-02T02:57:36;3.43;;;3.13;;
23206;SDS011;11773;52.570;13.052;2024-03-02T03:00:13;3.30;;;3.00;;
23206;SDS011;11773;52.570;13.052;2024-03-02T03:02:47;3.70;;;3.37;;
23206;SDS011;11773;52.570;13.052;2024-03-02T03:05:18;3.60;;;3.20;;
23206;SDS011;11773;52.570;13.052;2024-03-02T03:07:48;4.23;;;3.80;;
23206;SDS011;11773;52.570;13.052;2024-03-02T03:10:18;4.77;;;4.23;;
23206;SDS011;11773;52.570;13.052;2024-03-02T03:12:49;4.00;;;3.60;;
23206;SDS011;11773;52.570;13.052;2024-03-02T03:15:19;3.87;;;3.47;;
23206;SDS011;11773;52.570;13.052;2024-03-02T03:17:48;4.00;;;3.60;;
23206;SDS011;11773;52.570;13.052;2024-03-02T03:20:18;5.30;;;4.37;;
23206;SDS011;11773;52.570;13.052;2024-03-02T03:22:49;4.87;;;4.20;;
23206;SDS011;11773;52.570;13.052;2024-03-02T03:25:18;4.80;;;3.87;;
23206;SDS011;11773;52.570;13.052;2024-03-02T03:27:48;4.20;;;3.70;;
23206;SDS011;11773;52.570;13.052;2024-03-02T03:30:19;3.97;;;3.57;;
23206;SDS011;11773;52.570;13.052;2024-03-02T03:32:50;4.00;;;3.60;;
23206;SDS011;11773;52.570;13.052;2024-03-02T03:35:19;4.17;;;3.77;;
23206;SDS011;11773;52.570;13.052;2024-03-02T03:37:49;4.30;;;3.90;;
23206;SDS011;11773;52.570;13.052;2024-03-02T03:40:19;3.30;;;3.00;;
23206;SDS011;11773;52.570;13.052;2024-03-02T03:42:49;4.60;;;3.93;;
23206;SDS011;11773;52.570;13.052;2024-03-02T03:45:18;4.20;;;3.80;;
23206;SDS011;11773;52.570;13.052;2024-03-02T03:47:48;5.10;;;4.60;;
23206;SDS011;11773;52.570;13.052;2024-03-02T03:50:18;5.53;;;4.33;;
23206;SDS011;11773;52.570;13.052;2024-03-02T03:52:47;4.20;;;3.80;;
23206;SDS011;11773;52.570;13.052;2024-03-02T03:55:17;3.70;;;3.40;;
23206;SDS011;11773;52.570;13.052;2024-03-02T03:57:46;3.80;;;3.47;;
23206;SDS011;11773;52.570;13.052;2024-03-02T04:00:16;3.87;;;3.20;;
23206;SDS011;11773;52.570;13.052;2024-03-02T04:02:46;4.43;;;3.30;;
23206;SDS011;11773;52.570;13.052;2024-03-02T04:05:15;3.87;;;3.50;;
23206;SDS011;11773;52.570;13.052;2024-03-02T04:07:45;3.90;;;3.40;;
23206;SDS011;11773;52.570;13.052;2024-03-02T04:10:14;3.50;;;3.20;;
23206;SDS011;11773;52.570;13.052;2024-03-02T04:12:44;3.63;;;3.30;;
23206;SDS011;11773;52.570;13.052;2024-03-02T04:15:14;3.90;;;3.50;;
23206;SDS011;11773;52.570;13.052;2024-03-02T04:17:45;4.67;;;3.93;;
23206;SDS011;11773;52.570;13.052;2024-03-02T04:20:15;3.30;;;3.00;;
23206;SDS011;11773;52.570;13.052;2024-03-02T04:22:44;4.10;;;3.70;;
23206;SDS011;11773;52.570;13.052;2024-03-02T04:25:14;3.77;;;3.37;;
23206;SDS011;11773;52.570;13.052;2024-03-02T04:27:43;3.93;;;3.60;;
23206;SDS011;11773;52.570;13.052;2024-03-02T04:30:14;3.67;;;3.27;;
23206;SDS011;11773;52.570;13.052;2024-03-02T04:32:43;3.40;;;3.10;;
23206;SDS011;11773;52.570;13.052;2024-03-02T04:35:14;3.83;;;3.43;;
23206;SDS011;11773;52.570;13.052;2024-03-02T04:37:43;4.10;;;3.70;;
23206;SDS011;11773;52.570;13.052;2024-03-02T04:40:13;3.80;;;3.40;;
23206;SDS011;11773;52.570;13.052;2024-03-02T04:42:42;3.73;;;3.40;;
23206;SDS011;11773;52.570;13.052;2024-03-02T04:45:12;3.53;;;3.10;;
23206;SDS011;11773;52.570;13.052;2024-03-02T04:47:42;4.17;;;3.70;;
23206;SDS011;11773;52.570;13.052;2024-03-02T04:50:13;3.90;;;3.50;;
23206;SDS011;11773;52.570;13.052;2024-03-02T04:52:42;3.70;;;3.40;;
23206;SDS011;11773;52.570;13.052;2024-03-02T04:55:12;3.80;;;3.40;;
23206;SDS011;11773;52.570;13.052;2024-03-02T04:57:58;3.97;;;3.47;;
23206;SDS011;11773;52.570;13.052;2024-03-02T05:00:28;3.93;;;3.53;;
23206;SDS011;11773;52.570;13.052;2024-03-02T05:02:58;3.90;;;3.50;;
23206;SDS011;11773;52.570;13.052;2024-03-02T05:05:28;4.30;;;3.77;;
23206;SDS011;11773;52.570;13.052;2024-03-02T05:07:57;4.20;;;3.67;;
23206;SDS011;11773;52.570;13.052;2024-03-02T05:10:27;3.60;;;3.30;;
23206;SDS011;11773;52.570;13.052;2024-03-02T05:12:56;4.50;;;3.57;;
23206;SDS011;11773;52.570;13.052;2024-03-02T05:15:27;4.07;;;3.67;;
23206;SDS011;11773;52.570;13.052;2024-03-02T05:17:57;4.27;;;3.87;;
23206;SDS011;11773;52.570;13.052;2024-03-02T05:20:28;3.90;;;3.50;;
23206;SDS011;11773;52.570;13.052;2024-03-02T05:22:58;3.93;;;3.53;;
23206;SDS011;11773;52.570;13.052;2024-03-02T05:25:27;3.63;;;3.33;;
23206;SDS011;11773;52.570;13.052;2024-03-02T05:27:57;3.23;;;2.93;;
23206;SDS011;11773;52.570;13.052;2024-03-02T05:30:27;3.93;;;3.53;;
23206;SDS011;11773;52.570;13.052;2024-03-02T05:32:56;3.97;;;3.57;;
23206;SDS011;11773;52.570;13.052;2024-03-02T05:35:26;4.10;;;3.40;;
23206;SDS011;11773;52.570;13.052;2024-03-02T05:37:55;4.70;;;4.20;;
23206;SDS011;11773;52.570;13.052;2024-03-02T05:40:25;4.47;;;4.08;;
23206;SDS011;11773;52.570;13.052;2024-03-02T05:42:55;3.90;;;3.50;;
23206;SDS011;11773;52.570;13.052;2024-03-02T05:45:25;5.10;;;4.60;;
23206;SDS011;11773;52.570;13.052;2024-03-02T05:47:54;4.63;;;3.90;;
23206;SDS011;11773;52.570;13.052;2024-03-02T05:50:24;4.77;;;4.27;;
23206;SDS011;11773;52.570;13.052;2024-03-02T05:52:54;4.80;;;4.23;;
23206;SDS011;11773;52.570;13.052;2024-03-02T05:55:24;4.53;;;4.00;;
23206;SDS011;11773;52.570;13.052;2024-03-02T05:57:53;5.07;;;4.47;;
23206;SDS011;11773;52.570;13.052;2024-03-02T06:00:25;5.13;;;4.63;;
23206;SDS011;11773;52.570;13.052;2024-03-02T06:02:54;5.40;;;4.77;;
23206;SDS011;11773;52.570;13.052;2024-03-02T06:05:24;6.37;;;5.50;;
23206;SDS011;11773;52.570;13.052;2024-03-02T06:07:54;4.23;;;3.83;;
23206;SDS011;11773;52.570;13.052;2024-03-02T06:10:23;4.77;;;4.23;;
23206;SDS011;11773;52.570;13.052;2024-03-02T06:12:53;4.80;;;4.03;;
23206;SDS011;11773;52.570;13.052;2024-03-02T06:15:22;5.10;;;4.60;;
23206;SDS011;11773;52.570;13.052;2024-03-02T06:17:52;5.80;;;5.20;;
23206;SDS011;11773;52.570;13.052;2024-03-02T06:20:22;5.42;;;4.78;;
23206;SDS011;11773;52.570;13.052;2024-03-02T06:22:53;4.20;;;3.80;;
23206;SDS011;11773;52.570;13.052;2024-03-02T06:25:22;4.90;;;4.33;;
23206;SDS011;11773;52.570;13.052;2024-03-02T06:27:52;6.20;;;5.60;;
23206;SDS011;11773;52.570;13.052;2024-03-02T06:30:22;4.70;;;4.27;;
23206;SDS011;11773;52.570;13.052;2024-03-02T06:32:51;4.23;;;3.77;;
23206;SDS011;11773;52.570;13.052;2024-03-02T06:35:21;4.37;;;3.97;;
23206;SDS011;11773;52.570;13.052;2024-03-02T06:37:50;5.00;;;4.30;;
23206;SDS011;11773;52.570;13.052;2024-03-02T06:40:20;4.30;;;3.90;;
23206;SDS011;11773;52.570;13.052;2024-03-02T06:42:50;4.03;;;3.63;;
23206;SDS011;11773;52.570;13.052;2024-03-02T06:45:20;4.20;;;3.80;;
23206;SDS011;11773;52.570;13.052;2024-03-02T06:47:50;4.23;;;3.80;;
23206;SDS011;11773;52.570;13.052;2024-03-02T06:50:19;4.40;;;3.90;;
23206;SDS011;11773;52.570;13.052;2024-03-02T06:52:49;4.00;;;3.60;;
23206;SDS011;11773;52.570;13.052;2024-03-02T06:55:18;4.57;;;3.87;;
23206;SDS011;11773;52.570;13.052;2024-03-02T06:57:48;3.93;;;3.53;;
23206;SDS011;11773;52.570;13.052;2024-03-02T07:00:18;4.77;;;4.27;;
23206;SDS011;11773;52.570;13.052;2024-03-02T07:02:48;4.70;;;4.10;;
23206;SDS011;11773;52.570;13.052;2024-03-02T07:05:18;5.47;;;4.90;;
23206;SDS011;11773;52.570;13.052;2024-03-02T07:07:48;8.60;;;6.97;;
23206;SDS011;11773;52.570;13.052;2024-03-02T07:10:17;9.43;;;7.47;;
23206;SDS011;11773;52.570;13.052;2024-03-02T07:12:47;9.00;;;7.67;;
23206;SDS011;11773;52.570;13.052;2024-03-02T07:15:17;6.97;;;5.83;;
23206;SDS011;11773;52.570;13.052;2024-03-02T07:17:54;8.80;;;6.80;;
23206;SDS011;11773;52.570;13.052;2024-03-02T07:20:24;8.87;;;6.80;;
23206;SDS011;11773;52.570;13.052;2024-03-02T07:22:54;9.17;;;7.70;;
23206;SDS011;11773;52.570;13.052;2024-03-02T07:25:23;9.50;;;8.00;;
23206;SDS011;11773;52.570;13.052;2024-03-02T07:27:55;9.77;;;8.47;;
23206;SDS011;11773;52.570;13.052;2024-03-02T07:30:24;10.20;;;8.80;;
23206;SDS011;11773;52.570;13.052;2024-03-02T07:32:56;8.90;;;7.63;;
23206;SDS011;11773;52.570;13.052;2024-03-02T07:35:26;9.00;;;7.67;;
23206;SDS011;11773;52.570;13.052;2024-03-02T07:37:57;7.40;;;6.50;;
23206;SDS011;11773;52.570;13.052;2024-03-02T07:40:27;8.57;;;7.27;;
23206;SDS011;11773;52.570;13.052;2024-03-02T07:42:58;8.20;;;7.10;;
23206;SDS011;11773;52.570;13.052;2024-03-02T07:45:29;8.30;;;7.33;;
23206;SDS011;11773;52.570;13.052;2024-03-02T07:47:59;6.90;;;6.17;;
23206;SDS011;11773;52.570;13.052;2024-03-02T07:50:28;6.70;;;6.00;;
23206;SDS011;11773;52.570;13.052;2024-03-02T07:52:58;5.40;;;4.80;;
23206;SDS011;11773;52.570;13.052;2024-03-02T07:55:28;7.33;;;6.00;;
23206;SDS011;11773;52.570;13.052;2024-03-02T07:57:58;6.57;;;5.57;;
23206;SDS011;11773;52.570;13.052;2024-03-02T08:00:28;8.27;;;7.33;;
23206;SDS011;11773;52.570;13.052;2024-03-02T08:02:58;7.80;;;7.00;;
23206;SDS011;11773;52.570;13.052;2024-03-02T08:05:29;7.77;;;6.97;;
23206;SDS011;11773;52.570;13.052;2024-03-02T08:07:58;8.13;;;7.23;;
23206;SDS011;11773;52.570;13.052;2024-03-02T08:10:28;7.90;;;7.00;;
23206;SDS011;11773;52.570;13.052;2024-03-02T08:12:57;8.80;;;7.77;;
23206;SDS011;11773;52.570;13.052;2024-03-02T08:15:29;12.10;;;10.13;;
23206;SDS011;11773;52.570;13.052;2024-03-02T08:17:58;9.13;;;8.20;;
23206;SDS011;11773;52.570;13.052;2024-03-02T08:20:28;10.30;;;8.00;;
23206;SDS011;11773;52.570;13.052;2024-03-02T08:22:58;10.17;;;7.77;;
23206;SDS011;11773;52.570;13.052;2024-03-02T08:25:28;9.73;;;7.17;;
23206;SDS011;11773;52.570;13.052;2024-03-02T08:27:58;8.17;;;7.23;;
23206;SDS011;11773;52.570;13.052;2024-03-02T08:30:28;8.07;;;7.17;;
23206;SDS011;11773;52.570;13.052;2024-03-02T08:32:58;10.63;;;8.37;;
23206;SDS011;11773;52.570;13.052;2024-03-02T08:35:28;7.60;;;6.73;;
23206;SDS011;11773;52.570;13.052;2024-03-02T08:37:59;6.63;;;5.73;;
23206;SDS011;11773;52.570;13.052;2024-03-02T08:40:29;9.67;;;7.80;;
23206;SDS011;11773;52.570;13.052;2024-03-02T08:43:06;9.40;;;7.00;;
23206;SDS011;11773;52.570;13.052;2024-03-02T08:45:36;8.00;;;6.67;;
23206;SDS011;11773;52.570;13.052;2024-03-02T08:48:13;11.70;;;9.03;;
23206;SDS011;11773;52.570;13.052;2024-03-02T08:50:37;9.60;;;8.60;;
23206;SDS011;11773;52.570;13.052;2024-03-02T08:53:07;11.63;;;9.67;;
23206;SDS011;11773;52.570;13.052;2024-03-02T08:55:37;13.83;;;11.03;;
23206;SDS011;11773;52.570;13.052;2024-03-02T08:58:06;11.60;;;10.40;;
23206;SDS011;11773;52.570;13.052;2024-03-02T09:00:36;11.77;;;9.87;;
23206;SDS011;11773;52.570;13.052;2024-03-02T09:03:06;10.33;;;9.20;;
23206;SDS011;11773;52.570;13.052;2024-03-02T09:05:36;11.67;;;10.40;;
23206;SDS011;11773;52.570;13.052;2024-03-02T09:08:05;16.50;;;12.33;;
23206;SDS011;11773;52.570;13.052;2024-03-02T09:10:35;10.57;;;9.17;;
23206;SDS011;11773;52.570;13.052;2024-03-02T09:13:06;11.17;;;9.53;;
23206;SDS011;11773;52.570;13.052;2024-03-02T09:15:36;11.63;;;9.47;;
23206;SDS011;11773;52.570;13.052;2024-03-02T09:18:07;12.37;;;10.73;;
23206;SDS011;11773;52.570;13.052;2024-03-02T09:32:12;12.87;;;9.70;;
23206;SDS011;11773;52.570;13.052;2024-03-02T09:34:43;12.80;;;10.87;;
23206;SDS011;11773;52.570;13.052;2024-03-02T09:37:15;13.47;;;11.83;;
23206;SDS011;11773;52.570;13.052;2024-03-02T09:39:44;12.90;;;10.87;;
23206;SDS011;11773;52.570;13.052;2024-03-02T09:42:14;17.10;;;12.83;;
23206;SDS011;11773;52.570;13.052;2024-03-02T09:44:44;14.27;;;10.73;;
23206;SDS011;11773;52.570;13.052;2024-03-02T09:47:14;14.33;;;11.73;;
23206;SDS011;11773;52.570;13.052;2024-03-02T09:49:44;13.03;;;10.20;;
23206;SDS011;11773;52.570;13.052;2024-03-02T09:52:14;8.77;;;7.73;;
23206;SDS011;11773;52.570;13.052;2024-03-02T09:54:44;11.60;;;9.27;;
23206;SDS011;11773;52.570;13.052;2024-03-02T09:57:15;12.17;;;10.77;;
23206;SDS011;11773;52.570;13.052;2024-03-02T09:59:45;13.50;;;11.20;;
23206;SDS011;11773;52.570;13.052;2024-03-02T10:02:16;11.80;;;9.27;;
23206;SDS011;11773;52.570;13.052;2024-03-02T10:04:47;11.07;;;9.20;;
23206;SDS011;11773;52.570;13.052;2024-03-02T10:07:18;10.50;;;8.37;;
23206;SDS011;11773;52.570;13.052;2024-03-02T10:09:48;11.40;;;9.43;;
23206;SDS011;11773;52.570;13.052;2024-03-02T10:12:19;10.67;;;8.60;;
23206;SDS011;11773;52.570;13.052;2024-03-02T10:14:49;10.17;;;8.63;;
23206;SDS011;11773;52.570;13.052;2024-03-02T10:17:23;11.00;;;9.13;;
23206;SDS011;11773;52.570;13.052;2024-03-02T10:19:58;10.20;;;8.63;;
23206;SDS011;11773;52.570;13.052;2024-03-02T10:22:27;9.27;;;7.27;;
23206;SDS011;11773;52.570;13.052;2024-03-02T10:25:06;9.87;;;8.17;;
23206;SDS011;11773;52.570;13.052;2024-03-02T10:27:39;8.33;;;7.13;;
23206;SDS011;11773;52.570;13.052;2024-03-02T10:30:10;7.93;;;7.00;;
23206;SDS011;11773;52.570;13.052;2024-03-02T10:32:41;6.13;;;5.40;;
23206;SDS011;11773;52.570;13.052;2024-03-02T10:35:11;7.20;;;6.27;;
23206;SDS011;11773;52.570;13.052;2024-03-02T10:37:41;8.17;;;6.80;;
23206;SDS011;11773;52.570;13.052;2024-03-02T10:40:10;7.83;;;6.63;;
23206;SDS011;11773;52.570;13.052;2024-03-02T10:42:42;8.40;;;7.50;;
23206;SDS011;11773;52.570;13.052;2024-03-02T10:45:14;9.00;;;7.73;;
23206;SDS011;11773;52.570;13.052;2024-03-02T10:47:44;8.83;;;7.70;;
23206;SDS011;11773;52.570;13.052;2024-03-02T10:50:17;9.63;;;8.43;;
23206;SDS011;11773;52.570;13.052;2024-03-02T10:52:47;8.13;;;6.87;;
23206;SDS011;11773;52.570;13.052;2024-03-02T10:55:16;8.27;;;7.30;;
23206;SDS011;11773;52.570;13.052;2024-03-02T10:57:53;6.40;;;5.57;;
23206;SDS011;11773;52.570;13.052;2024-03-02T11:00:24;8.73;;;7.30;;
23206;SDS011;11773;52.570;13.052;2024-03-02T11:02:58;6.00;;;5.13;;
23206;SDS011;11773;52.570;13.052;2024-03-02T11:05:39;8.53;;;6.87;;
23206;SDS011;11773;52.570;13.052;2024-03-02T11:08:12;7.97;;;7.17;;
23206;SDS011;11773;52.570;13.052;2024-03-02T11:10:51;6.70;;;6.00;;
23206;SDS011;11773;52.570;13.052;2024-03-02T11:13:29;8.03;;;6.83;;
23206;SDS011;11773;52.570;13.052;2024-03-02T11:16:05;8.00;;;7.20;;
23206;SDS011;11773;52.570;13.052;2024-03-02T11:18:39;10.13;;;8.57;;
23206;SDS011;11773;52.570;13.052;2024-03-02T11:21:10;10.20;;;9.10;;
23206;SDS011;11773;52.570;13.052;2024-03-02T11:23:41;10.60;;;9.50;;
23206;SDS011;11773;52.570;13.052;2024-03-02T11:26:17;8.10;;;7.00;;
23206;SDS011;11773;52.570;13.052;2024-03-02T11:28:48;9.03;;;7.97;;
23206;SDS011;11773;52.570;13.052;2024-03-02T11:31:19;10.00;;;8.40;;
23206;SDS011;11773;52.570;13.052;2024-03-02T11:33:48;8.60;;;7.70;;
23206;SDS011;11773;52.570;13.052;2024-03-02T11:36:19;11.63;;;9.00;;
23206;SDS011;11773;52.570;13.052;2024-03-02T11:38:48;11.27;;;9.97;;
23206;SDS011;11773;52.570;13.052;2024-03-02T11:41:20;9.73;;;8.10;;
23206;SDS011;11773;52.570;13.052;2024-03-02T11:43:52;11.10;;;8.63;;
23206;SDS011;11773;52.570;13.052;2024-03-02T11:46:21;10.93;;;9.67;;
23206;SDS011;11773;52.570;13.052;2024-03-02T11:48:53;8.57;;;7.67;;
23206;SDS011;11773;52.570;13.052;2024-03-02T11:51:23;8.03;;;7.23;;
23206;SDS011;11773;52.570;13.052;2024-03-02T11:53:53;10.20;;;9.07;;
23206;SDS011;11773;52.570;13.052;2024-03-02T11:56:26;9.80;;;8.20;;
23206;SDS011;11773;52.570;13.052;2024-03-02T11:58:58;9.13;;;7.47;;
23206;SDS011;11773;52.570;13.052;2024-03-02T12:01:29;8.90;;;8.00;;
23206;SDS011;11773;52.570;13.052;2024-03-02T12:04:02;8.07;;;6.57;;
23206;SDS011;11773;52.570;13.052;2024-03-02T12:06:34;8.17;;;6.80;;
23206;SDS011;11773;52.570;13.052;2024-03-02T12:09:05;9.37;;;8.37;;
23206;SDS011;11773;52.570;13.052;2024-03-02T12:11:38;9.10;;;8.10;;
23206;SDS011;11773;52.570;13.052;2024-03-02T12:14:11;8.23;;;7.40;;
23206;SDS011;11773;52.570;13.052;2024-03-02T12:16:44;8.03;;;7.23;;
23206;SDS011;11773;52.570;13.052;2024-03-02T12:19:13;10.50;;;9.13;;
23206;SDS011;11773;52.570;13.052;2024-03-02T12:21:44;11.10;;;9.43;;
23206;SDS011;11773;52.570;13.052;2024-03-02T12:24:15;9.83;;;8.53;;
23206;SDS011;11773;52.570;13.052;2024-03-02T12:26:45;9.17;;;7.80;;
23206;SDS011;11773;52.570;13.052;2024-03-02T12:29:15;9.13;;;7.50;;
23206;SDS011;11773;52.570;13.052;2024-03-02T12:31:49;8.30;;;7.20;;
23206;SDS011;11773;52.570;13.052;2024-03-02T12:34:21;7.90;;;7.00;;
23206;SDS011;11773;52.570;13.052;2024-03-02T12:36:51;7.73;;;6.93;;
23206;SDS011;11773;52.570;13.052;2024-03-02T12:39:20;8.07;;;6.83;;
23206;SDS011;11773;52.570;13.052;2024-03-02T12:41:50;8.00;;;7.10;;
23206;SDS011;11773;52.570;13.052;2024-03-02T12:44:21;7.80;;;7.00;;
23206;SDS011;11773;52.570;13.052;2024-03-02T12:46:50;7.30;;;6.60;;
23206;SDS011;11773;52.570;13.052;2024-03-02T12:49:22;6.73;;;5.97;;
23206;SDS011;11773;52.570;13.052;2024-03-02T12:51:52;6.97;;;6.10;;
23206;SDS011;11773;52.570;13.052;2024-03-02T12:54:24;7.03;;;6.33;;
23206;SDS011;11773;52.570;13.052;2024-03-02T12:56:54;6.27;;;5.23;;
23206;SDS011;11773;52.570;13.052;2024-03-02T12:59:26;5.90;;;5.20;;
23206;SDS011;11773;52.570;13.052;2024-03-02T13:01:56;6.53;;;5.83;;
23206;SDS011;11773;52.570;13.052;2024-03-02T13:04:26;8.57;;;7.67;;
23206;SDS011;11773;52.570;13.052;2024-03-02T13:06:58;7.70;;;6.90;;
23206;SDS011;11773;52.570;13.052;2024-03-02T13:09:29;6.80;;;5.90;;
23206;SDS011;11773;52.570;13.052;2024-03-02T13:12:00;6.33;;;5.70;;
23206;SDS011;11773;52.570;13.052;2024-03-02T13:14:35;5.77;;;5.17;;
23206;SDS011;11773;52.570;13.052;2024-03-02T13:17:04;4.50;;;4.10;;
23206;SDS011;11773;52.570;13.052;2024-03-02T13:19:36;4.10;;;3.70;;
23206;SDS011;11773;52.570;13.052;2024-03-02T13:22:05;4.27;;;3.87;;
23206;SDS011;11773;52.570;13.052;2024-03-02T13:24:35;5.00;;;4.20;;
23206;SDS011;11773;52.570;13.052;2024-03-02T13:27:04;6.10;;;4.90;;
23206;SDS011;11773;52.570;13.052;2024-03-02T13:29:34;5.03;;;4.37;;
23206;SDS011;11773;52.570;13.052;2024-03-02T13:32:04;6.07;;;5.10;;
23206;SDS011;11773;52.570;13.052;2024-03-02T13:34:34;5.87;;;4.77;;
23206;SDS011;11773;52.570;13.052;2024-03-02T13:37:04;9.87;;;6.57;;
23206;SDS011;11773;52.570;13.052;2024-03-02T13:39:33;6.87;;;5.57;;
23206;SDS011;11773;52.570;13.052;2024-03-02T13:42:10;4.87;;;4.37;;
23206;SDS011;11773;52.570;13.052;2024-03-02T13:44:45;5.37;;;4.83;;
23206;SDS011;11773;52.570;13.052;2024-03-02T13:47:22;5.70;;;4.97;;
23206;SDS011;11773;52.570;13.052;2024-03-02T13:49:53;5.60;;;5.00;;
23206;SDS011;11773;52.570;13.052;2024-03-02T13:55:11;4.50;;;4.10;;
23206;SDS011;11773;52.570;13.052;2024-03-02T13:57:41;4.40;;;4.00;;
23206;SDS011;11773;52.570;13.052;2024-03-02T14:00:11;4.70;;;4.20;;
23206;SDS011;11773;52.570;13.052;2024-03-02T14:02:41;4.60;;;4.10;;
23206;SDS011;11773;52.570;13.052;2024-03-02T14:05:11;5.43;;;4.43;;
23206;SDS011;11773;52.570;13.052;2024-03-02T14:07:41;5.70;;;4.90;;
23206;SDS011;11773;52.570;13.052;2024-03-02T14:10:14;7.00;;;6.20;;
23206;SDS011;11773;52.570;13.052;2024-03-02T14:12:45;6.40;;;5.33;;
23206;SDS011;11773;52.570;13.052;2024-03-02T14:15:17;5.63;;;4.93;;
23206;SDS011;11773;52.570;13.052;2024-03-02T14:17:48;5.40;;;4.90;;
23206;SDS011;11773;52.570;13.052;2024-03-02T14:20:18;5.20;;;4.70;;
23206;SDS011;11773;52.570;13.052;2024-03-02T14:22:49;6.03;;;5.43;;
23206;SDS011;11773;52.570;13.052;2024-03-02T14:25:19;5.30;;;4.17;;
23206;SDS011;11773;52.570;13.052;2024-03-02T14:27:48;5.33;;;4.60;;
23206;SDS011;11773;52.570;13.052;2024-03-02T14:30:20;6.20;;;5.53;;
23206;SDS011;11773;52.570;13.052;2024-03-02T14:32:49;7.03;;;5.63;;
23206;SDS011;11773;52.570;13.052;2024-03-02T14:35:19;6.00;;;5.27;;
23206;SDS011;11773;52.570;13.052;2024-03-02T14:37:49;6.03;;;5.30;;
23206;SDS011;11773;52.570;13.052;2024-03-02T14:40:19;5.77;;;5.17;;
23206;SDS011;11773;52.570;13.052;2024-03-02T14:42:49;5.50;;;5.00;;
23206;SDS011;11773;52.570;13.052;2024-03-02T14:45:19;5.00;;;4.37;;
23206;SDS011;11773;52.570;13.052;2024-03-02T14:47:48;7.23;;;5.83;;
23206;SDS011;11773;52.570;13.052;2024-03-02T14:50:19;5.97;;;5.10;;
23206;SDS011;11773;52.570;13.052;2024-03-02T14:52:49;4.67;;;4.17;;
23206;SDS011;11773;52.570;13.052;2024-03-02T14:55:18;6.70;;;5.90;;
23206;SDS011;11773;52.570;13.052;2024-03-02T14:57:48;8.33;;;6.77;;
23206;SDS011;11773;52.570;13.052;2024-03-02T15:00:18;5.47;;;4.97;;
23206;SDS011;11773;52.570;13.052;2024-03-02T15:02:47;6.90;;;5.50;;
23206;SDS011;11773;52.570;13.052;2024-03-02T15:05:17;6.63;;;5.27;;
23206;SDS011;11773;52.570;13.052;2024-03-02T15:07:47;5.43;;;4.93;;